createdAt,value
2022-12-14T00:00:08.872Z,83.82
2022-12-14T00:00:19.127Z,83.82
2022-12-14T00:00:29.448Z,83.82
2022-12-14T00:00:39.708Z,83.82
2022-12-14T00:00:49.991Z,83.82
2022-12-14T00:01:00.309Z,83.72
2022-12-14T00:01:10.547Z,83.72
2022-12-14T00:01:20.802Z,83.72
2022-12-14T00:01:31.065Z,83.72
2022-12-14T00:01:41.330Z,83.72
2022-12-14T00:01:51.587Z,83.72
2022-12-14T00:02:02.084Z,83.72
2022-12-14T00:02:12.380Z,83.72
2022-12-14T00:02:22.605Z,83.72
2022-12-14T00:02:33.002Z,83.72
2022-12-14T00:02:43.271Z,83.72
2022-12-14T00:02:53.405Z,83.72
2022-12-14T00:03:03.863Z,83.72
2022-12-14T00:03:14.108Z,83.72
2022-12-14T00:03:24.452Z,83.72
2022-12-14T00:03:34.854Z,83.72
2022-12-14T00:03:45.202Z,83.72
2022-12-14T00:03:55.488Z,83.72
2022-12-14T00:04:05.765Z,83.72
2022-12-14T00:04:16.020Z,83.72
2022-12-14T00:04:26.273Z,83.72
2022-12-14T00:04:36.535Z,83.82
2022-12-14T00:04:46.797Z,83.82
2022-12-14T00:04:57.057Z,83.82
2022-12-14T00:05:07.317Z,83.82
2022-12-14T00:05:17.581Z,83.82
2022-12-14T00:05:27.838Z,83.82
2022-12-14T00:05:38.100Z,83.82
2022-12-14T00:05:48.357Z,83.82
2022-12-14T00:05:58.627Z,83.82
2022-12-14T00:06:08.881Z,83.82
2022-12-14T00:06:19.160Z,83.82
2022-12-14T00:06:29.419Z,83.82
2022-12-14T00:06:39.676Z,83.82
2022-12-14T00:06:49.932Z,83.82
2022-12-14T00:07:00.195Z,83.82
2022-12-14T00:07:10.461Z,83.82
2022-12-14T00:07:20.718Z,83.82
2022-12-14T00:07:30.980Z,83.82
2022-12-14T00:07:41.238Z,83.93
2022-12-14T00:07:51.496Z,83.93
2022-12-14T00:08:01.759Z,83.93
2022-12-14T00:08:12.019Z,83.93
2022-12-14T00:08:22.279Z,83.93
2022-12-14T00:08:36.745Z,83.93
2022-12-14T00:08:43.972Z,83.82
2022-12-14T00:08:53.389Z,83.82
2022-12-14T00:09:03.631Z,83.82
2022-12-14T00:09:13.886Z,83.82
2022-12-14T00:09:24.145Z,83.82
2022-12-14T00:09:34.411Z,83.82
2022-12-14T00:09:44.666Z,83.82
2022-12-14T00:09:54.930Z,83.82
2022-12-14T00:10:05.194Z,83.82
2022-12-14T00:10:15.457Z,83.82
2022-12-14T00:10:25.716Z,83.82
2022-12-14T00:10:35.983Z,83.93
2022-12-14T00:10:46.240Z,83.93
2022-12-14T00:10:56.500Z,83.93
2022-12-14T00:11:06.764Z,83.93
2022-12-14T00:11:17.042Z,83.93
2022-12-14T00:11:27.295Z,83.93
2022-12-14T00:11:37.557Z,83.82
2022-12-14T00:11:47.819Z,83.82
2022-12-14T00:11:58.079Z,83.82
2022-12-14T00:12:08.342Z,83.82
2022-12-14T00:12:18.597Z,83.82
2022-12-14T00:12:28.861Z,83.82
2022-12-14T00:12:39.119Z,83.82
2022-12-14T00:12:49.378Z,83.82
2022-12-14T00:12:59.640Z,83.82
2022-12-14T00:13:09.903Z,83.82
2022-12-14T00:13:20.163Z,83.82
2022-12-14T00:13:30.422Z,83.82
2022-12-14T00:13:40.682Z,83.82
2022-12-14T00:13:50.949Z,83.82
2022-12-14T00:14:01.213Z,83.82
2022-12-14T00:14:11.474Z,83.82
2022-12-14T00:14:21.729Z,83.82
2022-12-14T00:14:31.994Z,83.82
2022-12-14T00:14:42.258Z,83.82
2022-12-14T00:14:52.512Z,83.82
2022-12-14T00:15:02.776Z,83.82
2022-12-14T00:15:13.041Z,83.82
2022-12-14T00:15:23.291Z,83.82
2022-12-14T00:15:33.635Z,83.72
2022-12-14T00:15:43.935Z,83.72
2022-12-14T00:15:54.209Z,83.82
2022-12-14T00:16:04.551Z,83.82
2022-12-14T00:16:14.912Z,83.82
2022-12-14T00:16:25.177Z,83.82
2022-12-14T00:16:35.451Z,83.82
2022-12-14T00:16:45.703Z,83.82
2022-12-14T00:16:55.962Z,83.82
2022-12-14T00:17:06.222Z,83.93
2022-12-14T00:17:16.482Z,83.82
2022-12-14T00:17:26.744Z,83.82
2022-12-14T00:17:37.007Z,83.82
2022-12-14T00:17:47.262Z,83.82
2022-12-14T00:17:57.522Z,83.82
2022-12-14T00:18:07.783Z,83.82
2022-12-14T00:18:22.508Z,83.82
2022-12-14T00:18:29.018Z,83.82
2022-12-14T00:18:38.792Z,83.82
2022-12-14T00:18:49.051Z,83.82
2022-12-14T00:18:59.310Z,83.82
2022-12-14T00:19:09.570Z,83.82
2022-12-14T00:19:19.834Z,83.82
2022-12-14T00:19:30.092Z,83.82
2022-12-14T00:19:40.357Z,83.82
2022-12-14T00:19:50.613Z,83.82
2022-12-14T00:20:00.881Z,83.82
2022-12-14T00:20:11.140Z,83.82
2022-12-14T00:20:21.400Z,83.82
2022-12-14T00:20:31.663Z,83.82
2022-12-14T00:20:41.921Z,83.82
2022-12-14T00:20:52.177Z,83.82
2022-12-14T00:21:02.439Z,83.82
2022-12-14T00:21:12.703Z,83.82
2022-12-14T00:21:22.972Z,83.93
2022-12-14T00:21:33.240Z,83.93
2022-12-14T00:21:43.491Z,83.93
2022-12-14T00:21:53.747Z,83.93
2022-12-14T00:22:04.012Z,83.93
2022-12-14T00:22:14.275Z,83.93
2022-12-14T00:22:24.533Z,83.93
2022-12-14T00:22:34.791Z,83.93
2022-12-14T00:22:45.053Z,83.93
2022-12-14T00:22:55.310Z,83.93
2022-12-14T00:23:05.574Z,83.93
2022-12-14T00:23:15.832Z,83.93
2022-12-14T00:23:26.091Z,83.93
2022-12-14T00:23:39.153Z,83.93
2022-12-14T00:23:46.602Z,83.93
2022-12-14T00:23:56.889Z,83.93
2022-12-14T00:24:07.127Z,83.93
2022-12-14T00:24:17.382Z,83.93
2022-12-14T00:24:27.641Z,83.93
2022-12-14T00:24:37.902Z,83.93
2022-12-14T00:24:48.161Z,83.93
2022-12-14T00:24:58.418Z,83.93
2022-12-14T00:25:08.684Z,83.93
2022-12-14T00:25:18.953Z,83.93
2022-12-14T00:25:29.205Z,83.93
2022-12-14T00:25:39.475Z,83.93
2022-12-14T00:25:49.726Z,83.93
2022-12-14T00:25:59.986Z,83.93
2022-12-14T00:26:10.249Z,83.93
2022-12-14T00:26:20.522Z,83.93
2022-12-14T00:26:30.785Z,83.93
2022-12-14T00:26:41.045Z,83.93
2022-12-14T00:26:51.306Z,83.93
2022-12-14T00:27:01.569Z,83.93
2022-12-14T00:27:11.828Z,83.93
2022-12-14T00:27:22.088Z,83.93
2022-12-14T00:27:32.354Z,83.93
2022-12-14T00:27:42.611Z,83.93
2022-12-14T00:27:52.866Z,83.93
2022-12-14T00:28:03.127Z,83.93
2022-12-14T00:28:13.393Z,83.93
2022-12-14T00:28:24.054Z,83.93
2022-12-14T00:28:34.055Z,83.93
2022-12-14T00:28:44.308Z,83.93
2022-12-14T00:28:54.566Z,83.93
2022-12-14T00:29:04.828Z,83.93
2022-12-14T00:29:15.089Z,83.93
2022-12-14T00:29:25.344Z,84.03
2022-12-14T00:29:35.605Z,84.03
2022-12-14T00:29:45.867Z,84.03
2022-12-14T00:29:56.124Z,84.03
2022-12-14T00:30:06.391Z,84.03
2022-12-14T00:30:16.653Z,84.03
2022-12-14T00:30:26.907Z,84.03
2022-12-14T00:30:37.170Z,84.03
2022-12-14T00:30:47.481Z,84.03
2022-12-14T00:30:58.493Z,84.03
2022-12-14T00:31:08.006Z,84.03
2022-12-14T00:31:18.332Z,84.03
2022-12-14T00:31:28.703Z,84.03
2022-12-14T00:31:39.055Z,84.03
2022-12-14T00:31:49.371Z,83.93
2022-12-14T00:31:59.651Z,83.93
2022-12-14T00:32:09.910Z,83.93
2022-12-14T00:32:20.173Z,83.93
2022-12-14T00:32:30.435Z,83.82
2022-12-14T00:32:40.692Z,83.82
2022-12-14T00:32:50.956Z,83.82
2022-12-14T00:33:01.218Z,83.82
2022-12-14T00:33:11.474Z,83.82
2022-12-14T00:33:21.739Z,83.82
2022-12-14T00:33:31.995Z,83.82
2022-12-14T00:33:42.256Z,83.82
2022-12-14T00:33:52.514Z,83.82
2022-12-14T00:34:02.777Z,83.82
2022-12-14T00:34:13.038Z,83.82
2022-12-14T00:34:23.299Z,83.82
2022-12-14T00:34:33.559Z,83.82
2022-12-14T00:34:43.822Z,83.93
2022-12-14T00:34:54.082Z,83.93
2022-12-14T00:35:04.341Z,83.93
2022-12-14T00:35:14.611Z,83.93
2022-12-14T00:35:24.868Z,83.93
2022-12-14T00:35:35.128Z,83.93
2022-12-14T00:35:45.394Z,83.93
2022-12-14T00:35:55.649Z,83.93
2022-12-14T00:36:05.913Z,83.93
2022-12-14T00:36:16.173Z,83.93
2022-12-14T00:36:26.444Z,83.93
2022-12-14T00:36:36.706Z,83.93
2022-12-14T00:36:46.969Z,83.93
2022-12-14T00:36:57.227Z,83.93
2022-12-14T00:37:07.490Z,83.93
2022-12-14T00:37:17.754Z,83.93
2022-12-14T00:37:28.010Z,83.93
2022-12-14T00:37:38.270Z,83.93
2022-12-14T00:37:48.841Z,83.93
2022-12-14T00:37:58.882Z,83.93
2022-12-14T00:38:09.142Z,83.93
2022-12-14T00:38:19.401Z,83.93
2022-12-14T00:38:29.958Z,83.93
2022-12-14T00:38:39.903Z,84.03
2022-12-14T00:38:50.166Z,84.03
2022-12-14T00:39:00.446Z,84.03
2022-12-14T00:39:10.721Z,84.03
2022-12-14T00:39:20.975Z,84.03
2022-12-14T00:39:31.246Z,83.93
2022-12-14T00:39:41.504Z,84.03
2022-12-14T00:39:51.755Z,84.03
2022-12-14T00:40:02.021Z,84.03
2022-12-14T00:40:12.279Z,84.03
2022-12-14T00:40:22.540Z,84.03
2022-12-14T00:40:32.811Z,84.03
2022-12-14T00:40:43.078Z,84.03
2022-12-14T00:40:53.334Z,84.03
2022-12-14T00:41:03.599Z,84.03
2022-12-14T00:41:13.869Z,84.03
2022-12-14T00:41:24.142Z,84.14
2022-12-14T00:41:34.401Z,84.14
2022-12-14T00:41:44.671Z,84.14
2022-12-14T00:41:54.920Z,84.14
2022-12-14T00:42:05.182Z,84.14
2022-12-14T00:42:15.441Z,84.14
2022-12-14T00:42:25.705Z,84.14
2022-12-14T00:42:35.965Z,84.14
2022-12-14T00:42:46.224Z,84.14
2022-12-14T00:42:56.482Z,84.14
2022-12-14T00:43:06.749Z,84.14
2022-12-14T00:43:17.007Z,84.24
2022-12-14T00:43:27.266Z,84.14
2022-12-14T00:43:37.529Z,84.14
2022-12-14T00:43:49.593Z,84.14
2022-12-14T00:43:58.058Z,84.14
2022-12-14T00:44:08.316Z,84.14
2022-12-14T00:44:18.573Z,84.14
2022-12-14T00:44:28.837Z,84.14
2022-12-14T00:44:39.099Z,84.24
2022-12-14T00:44:49.369Z,84.24
2022-12-14T00:44:59.617Z,84.24
2022-12-14T00:45:09.880Z,84.14
2022-12-14T00:45:20.148Z,84.14
2022-12-14T00:45:30.404Z,84.14
2022-12-14T00:45:40.661Z,84.14
2022-12-14T00:45:50.928Z,84.14
2022-12-14T00:46:01.275Z,84.14
2022-12-14T00:46:11.601Z,84.03
2022-12-14T00:46:21.945Z,84.03
2022-12-14T00:46:32.247Z,84.03
2022-12-14T00:46:42.557Z,84.03
2022-12-14T00:46:52.862Z,83.93
2022-12-14T00:47:03.115Z,83.93
2022-12-14T00:47:13.372Z,83.93
2022-12-14T00:47:23.630Z,83.93
2022-12-14T00:47:40.399Z,83.82
2022-12-14T00:47:45.321Z,83.82
2022-12-14T00:47:54.724Z,83.82
2022-12-14T00:48:04.984Z,83.82
2022-12-14T00:48:15.239Z,83.72
2022-12-14T00:48:25.990Z,83.72
2022-12-14T00:48:35.918Z,83.72
2022-12-14T00:48:46.179Z,83.72
2022-12-14T00:48:56.466Z,83.72
2022-12-14T00:49:06.692Z,83.72
2022-12-14T00:49:16.956Z,83.72
2022-12-14T00:49:27.209Z,83.72
2022-12-14T00:49:37.482Z,83.72
2022-12-14T00:49:48.563Z,83.72
2022-12-14T00:49:58.095Z,83.72
2022-12-14T00:50:08.356Z,83.82
2022-12-14T00:50:18.610Z,83.72
2022-12-14T00:50:28.872Z,83.82
2022-12-14T00:50:39.130Z,83.82
2022-12-14T00:50:49.392Z,83.82
2022-12-14T00:50:59.653Z,83.82
2022-12-14T00:51:09.934Z,83.72
2022-12-14T00:51:20.198Z,83.72
2022-12-14T00:51:30.453Z,83.82
2022-12-14T00:51:40.724Z,83.82
2022-12-14T00:51:50.985Z,83.82
2022-12-14T00:52:01.369Z,83.82
2022-12-14T00:52:11.628Z,83.82
2022-12-14T00:52:21.889Z,83.82
2022-12-14T00:52:32.150Z,83.82
2022-12-14T00:52:42.412Z,83.82
2022-12-14T00:52:52.665Z,83.82
2022-12-14T00:53:02.928Z,83.86
2022-12-14T00:53:13.187Z,83.82
2022-12-14T00:53:23.449Z,83.82
2022-12-14T00:53:33.707Z,83.82
2022-12-14T00:53:43.973Z,83.82
2022-12-14T00:53:54.231Z,83.75
2022-12-14T00:54:04.530Z,83.72
2022-12-14T00:54:14.769Z,83.72
2022-12-14T00:54:25.040Z,83.72
2022-12-14T00:54:35.289Z,83.75
2022-12-14T00:54:45.555Z,83.72
2022-12-14T00:54:55.815Z,83.72
2022-12-14T00:55:06.078Z,83.72
2022-12-14T00:55:16.336Z,83.72
2022-12-14T00:55:26.596Z,83.72
2022-12-14T00:55:36.855Z,83.72
2022-12-14T00:55:49.306Z,83.72
2022-12-14T00:55:57.546Z,83.72
2022-12-14T00:56:07.813Z,83.82
2022-12-14T00:56:18.064Z,83.86
2022-12-14T00:56:28.330Z,83.86
2022-12-14T00:56:38.674Z,83.82
2022-12-14T00:56:48.897Z,83.82
2022-12-14T00:56:59.184Z,83.93
2022-12-14T00:57:09.463Z,83.93
2022-12-14T00:57:19.697Z,83.93
2022-12-14T00:57:29.953Z,83.93
2022-12-14T00:57:40.214Z,83.93
2022-12-14T00:57:50.480Z,83.97
2022-12-14T00:58:00.751Z,83.93
2022-12-14T00:58:11.008Z,83.93
2022-12-14T00:58:21.267Z,83.97
2022-12-14T00:58:31.672Z,83.97
2022-12-14T00:58:41.751Z,83.97
2022-12-14T00:58:51.998Z,83.93
2022-12-14T00:59:02.258Z,83.93
2022-12-14T00:59:12.521Z,83.82
2022-12-14T00:59:27.099Z,83.82
2022-12-14T00:59:33.145Z,83.82
2022-12-14T00:59:43.368Z,83.82
2022-12-14T00:59:53.633Z,83.82
2022-12-14T01:00:03.897Z,83.82
2022-12-14T01:00:14.148Z,83.82
2022-12-14T01:00:24.415Z,83.82
2022-12-14T01:00:34.684Z,83.82
2022-12-14T01:00:44.938Z,83.97
2022-12-14T01:00:55.200Z,83.82
2022-12-14T01:01:05.459Z,83.97
2022-12-14T01:01:15.913Z,83.93
2022-12-14T01:01:26.133Z,83.93
2022-12-14T01:01:36.365Z,83.97
2022-12-14T01:01:46.603Z,83.93
2022-12-14T01:01:56.868Z,83.97
2022-12-14T01:02:07.313Z,83.97
2022-12-14T01:02:17.537Z,83.93
2022-12-14T01:02:27.710Z,83.97
2022-12-14T01:02:38.055Z,83.93
2022-12-14T01:02:48.362Z,83.93
2022-12-14T01:02:58.612Z,83.93
2022-12-14T01:03:08.870Z,83.97
2022-12-14T01:03:19.176Z,83.97
2022-12-14T01:03:29.981Z,83.93
2022-12-14T01:03:39.793Z,84.03
2022-12-14T01:03:50.147Z,84.07
2022-12-14T01:04:00.528Z,84.03
2022-12-14T01:04:10.801Z,84.07
2022-12-14T01:04:21.183Z,84.03
2022-12-14T01:04:31.409Z,84.07
2022-12-14T01:04:41.668Z,84.03
2022-12-14T01:04:51.930Z,84.03
2022-12-14T01:05:02.188Z,83.97
2022-12-14T01:05:12.447Z,83.97
2022-12-14T01:05:22.705Z,83.93
2022-12-14T01:05:32.965Z,83.97
2022-12-14T01:05:48.984Z,83.93
2022-12-14T01:05:54.440Z,83.97
2022-12-14T01:06:03.847Z,83.86
2022-12-14T01:06:14.104Z,83.86
2022-12-14T01:06:24.357Z,83.82
2022-12-14T01:06:34.622Z,83.86
2022-12-14T01:06:44.898Z,83.86
2022-12-14T01:06:55.157Z,83.75
2022-12-14T01:07:05.421Z,83.75
2022-12-14T01:07:15.680Z,83.75
2022-12-14T01:07:25.938Z,83.75
2022-12-14T01:07:36.205Z,83.75
2022-12-14T01:07:46.466Z,83.86
2022-12-14T01:07:56.759Z,83.86
2022-12-14T01:08:07.019Z,83.86
2022-12-14T01:08:17.276Z,83.86
2022-12-14T01:08:27.538Z,83.86
2022-12-14T01:08:37.798Z,83.86
2022-12-14T01:08:48.056Z,83.86
2022-12-14T01:08:58.315Z,83.86
2022-12-14T01:09:08.599Z,83.86
2022-12-14T01:09:18.835Z,83.86
2022-12-14T01:09:29.095Z,83.86
2022-12-14T01:09:39.356Z,83.86
2022-12-14T01:09:49.615Z,83.86
2022-12-14T01:09:59.932Z,83.86
2022-12-14T01:10:10.160Z,83.86
2022-12-14T01:10:20.414Z,83.82
2022-12-14T01:10:30.675Z,83.86
2022-12-14T01:10:40.934Z,83.86
2022-12-14T01:10:51.208Z,83.86
2022-12-14T01:11:01.469Z,83.86
2022-12-14T01:11:11.716Z,83.86
2022-12-14T01:11:21.974Z,83.86
2022-12-14T01:11:32.240Z,83.86
2022-12-14T01:11:42.495Z,83.86
2022-12-14T01:11:52.766Z,83.86
2022-12-14T01:12:03.028Z,83.82
2022-12-14T01:12:13.294Z,83.82
2022-12-14T01:12:23.547Z,83.86
2022-12-14T01:12:33.809Z,83.82
2022-12-14T01:12:44.071Z,83.86
2022-12-14T01:12:54.329Z,83.86
2022-12-14T01:13:04.595Z,83.86
2022-12-14T01:13:14.853Z,83.86
2022-12-14T01:13:25.580Z,83.86
2022-12-14T01:13:35.351Z,83.86
2022-12-14T01:13:49.049Z,83.86
2022-12-14T01:13:56.008Z,83.86
2022-12-14T01:14:06.265Z,83.86
2022-12-14T01:14:16.524Z,83.86
2022-12-14T01:14:26.784Z,83.86
2022-12-14T01:14:37.050Z,83.86
2022-12-14T01:14:47.304Z,83.86
2022-12-14T01:14:57.567Z,83.86
2022-12-14T01:15:07.824Z,83.86
2022-12-14T01:15:18.105Z,83.86
2022-12-14T01:15:28.343Z,83.86
2022-12-14T01:15:38.729Z,83.86
2022-12-14T01:15:48.997Z,83.86
2022-12-14T01:15:59.243Z,83.75
2022-12-14T01:16:09.595Z,83.75
2022-12-14T01:16:19.948Z,83.75
2022-12-14T01:16:30.246Z,83.75
2022-12-14T01:16:40.462Z,83.75
2022-12-14T01:16:50.737Z,83.65
2022-12-14T01:17:00.996Z,83.75
2022-12-14T01:17:11.258Z,83.75
2022-12-14T01:17:21.514Z,83.75
2022-12-14T01:17:31.783Z,83.75
2022-12-14T01:17:42.040Z,83.75
2022-12-14T01:17:52.301Z,83.75
2022-12-14T01:18:02.568Z,83.75
2022-12-14T01:18:12.827Z,83.65
2022-12-14T01:18:23.082Z,83.65
2022-12-14T01:18:33.344Z,83.65
2022-12-14T01:18:43.618Z,83.65
2022-12-14T01:18:53.867Z,83.65
2022-12-14T01:19:04.123Z,83.65
2022-12-14T01:19:14.385Z,83.65
2022-12-14T01:19:24.644Z,83.65
2022-12-14T01:19:34.910Z,83.65
2022-12-14T01:19:45.168Z,83.65
2022-12-14T01:19:55.435Z,83.65
2022-12-14T01:20:05.700Z,83.65
2022-12-14T01:20:15.962Z,83.65
2022-12-14T01:20:26.216Z,83.75
2022-12-14T01:20:36.481Z,83.75
2022-12-14T01:20:46.737Z,83.75
2022-12-14T01:20:56.999Z,83.75
2022-12-14T01:21:07.261Z,83.75
2022-12-14T01:21:17.520Z,83.75
2022-12-14T01:21:27.778Z,83.75
2022-12-14T01:21:38.041Z,83.75
2022-12-14T01:21:48.314Z,83.75
2022-12-14T01:21:58.574Z,83.75
2022-12-14T01:22:08.836Z,83.75
2022-12-14T01:22:19.099Z,83.75
2022-12-14T01:22:29.359Z,83.75
2022-12-14T01:22:39.626Z,83.75
2022-12-14T01:22:49.880Z,83.75
2022-12-14T01:23:00.148Z,83.75
2022-12-14T01:23:10.409Z,83.75
2022-12-14T01:23:20.663Z,83.75
2022-12-14T01:23:30.924Z,83.75
2022-12-14T01:23:41.186Z,83.75
2022-12-14T01:23:51.447Z,83.75
2022-12-14T01:24:01.708Z,83.75
2022-12-14T01:24:11.992Z,83.75
2022-12-14T01:24:22.233Z,83.75
2022-12-14T01:24:32.492Z,83.75
2022-12-14T01:24:42.755Z,83.75
2022-12-14T01:24:53.012Z,83.75
2022-12-14T01:25:03.274Z,83.75
2022-12-14T01:25:13.536Z,83.75
2022-12-14T01:25:23.794Z,83.75
2022-12-14T01:25:34.058Z,83.75
2022-12-14T01:25:44.317Z,83.75
2022-12-14T01:25:54.711Z,83.75
2022-12-14T01:26:04.976Z,83.75
2022-12-14T01:26:15.241Z,83.75
2022-12-14T01:26:25.497Z,83.75
2022-12-14T01:26:35.755Z,83.75
2022-12-14T01:26:46.021Z,83.75
2022-12-14T01:26:56.291Z,83.75
2022-12-14T01:27:06.557Z,83.75
2022-12-14T01:27:16.815Z,83.75
2022-12-14T01:27:27.075Z,83.75
2022-12-14T01:27:37.337Z,83.75
2022-12-14T01:27:47.598Z,83.75
2022-12-14T01:27:57.860Z,83.75
2022-12-14T01:28:08.124Z,83.86
2022-12-14T01:28:18.380Z,83.86
2022-12-14T01:28:28.641Z,83.86
2022-12-14T01:28:38.903Z,83.86
2022-12-14T01:28:49.164Z,83.86
2022-12-14T01:28:59.424Z,83.86
2022-12-14T01:29:09.687Z,83.86
2022-12-14T01:29:19.942Z,83.86
2022-12-14T01:29:30.206Z,83.86
2022-12-14T01:29:40.468Z,83.86
2022-12-14T01:29:50.726Z,83.75
2022-12-14T01:30:00.992Z,83.75
2022-12-14T01:30:11.250Z,83.75
2022-12-14T01:30:21.510Z,83.75
2022-12-14T01:30:31.774Z,83.65
2022-12-14T01:30:42.036Z,83.65
2022-12-14T01:30:52.380Z,83.65
2022-12-14T01:31:02.645Z,83.65
2022-12-14T01:31:12.958Z,83.65
2022-12-14T01:31:23.339Z,83.75
2022-12-14T01:31:33.680Z,83.75
2022-12-14T01:31:43.918Z,83.75
2022-12-14T01:31:54.219Z,83.75
2022-12-14T01:32:04.496Z,83.75
2022-12-14T01:32:14.757Z,83.75
2022-12-14T01:32:25.016Z,83.75
2022-12-14T01:32:35.276Z,83.75
2022-12-14T01:32:45.549Z,83.75
2022-12-14T01:32:55.805Z,83.75
2022-12-14T01:33:06.059Z,83.75
2022-12-14T01:33:16.325Z,83.75
2022-12-14T01:33:26.959Z,83.75
2022-12-14T01:33:36.935Z,83.75
2022-12-14T01:33:47.192Z,83.75
2022-12-14T01:33:57.453Z,83.75
2022-12-14T01:34:07.712Z,83.86
2022-12-14T01:34:17.972Z,83.86
2022-12-14T01:34:28.230Z,83.86
2022-12-14T01:34:38.500Z,83.86
2022-12-14T01:34:48.751Z,83.86
2022-12-14T01:34:59.020Z,83.86
2022-12-14T01:35:09.284Z,83.97
2022-12-14T01:35:19.544Z,83.97
2022-12-14T01:35:29.813Z,83.97
2022-12-14T01:35:40.074Z,83.97
2022-12-14T01:35:50.324Z,83.97
2022-12-14T01:36:00.624Z,83.97
2022-12-14T01:36:10.911Z,83.97
2022-12-14T01:36:21.139Z,83.97
2022-12-14T01:36:31.405Z,83.97
2022-12-14T01:36:41.670Z,83.97
2022-12-14T01:36:51.922Z,83.86
2022-12-14T01:37:02.212Z,83.86
2022-12-14T01:37:12.470Z,83.86
2022-12-14T01:37:22.740Z,83.86
2022-12-14T01:37:33.000Z,83.86
2022-12-14T01:37:43.258Z,83.75
2022-12-14T01:37:53.515Z,83.75
2022-12-14T01:38:03.778Z,83.75
2022-12-14T01:38:14.037Z,83.75
2022-12-14T01:38:24.299Z,83.75
2022-12-14T01:38:34.571Z,83.75
2022-12-14T01:38:45.776Z,83.75
2022-12-14T01:38:55.171Z,83.75
2022-12-14T01:39:05.436Z,83.65
2022-12-14T01:39:15.731Z,83.75
2022-12-14T01:39:25.953Z,83.75
2022-12-14T01:39:36.214Z,83.75
2022-12-14T01:39:46.477Z,83.86
2022-12-14T01:39:56.734Z,83.86
2022-12-14T01:40:06.996Z,83.86
2022-12-14T01:40:17.261Z,83.86
2022-12-14T01:40:27.517Z,83.86
2022-12-14T01:40:37.778Z,83.86
2022-12-14T01:40:48.040Z,83.86
2022-12-14T01:40:58.300Z,83.86
2022-12-14T01:41:08.561Z,83.86
2022-12-14T01:41:18.826Z,83.86
2022-12-14T01:41:29.088Z,83.86
2022-12-14T01:41:39.348Z,83.86
2022-12-14T01:41:49.611Z,83.86
2022-12-14T01:41:59.865Z,83.86
2022-12-14T01:42:10.138Z,83.86
2022-12-14T01:42:20.395Z,83.86
2022-12-14T01:42:30.660Z,83.86
2022-12-14T01:42:40.916Z,83.86
2022-12-14T01:42:51.180Z,83.86
2022-12-14T01:43:01.443Z,83.86
2022-12-14T01:43:11.699Z,83.86
2022-12-14T01:43:21.960Z,83.86
2022-12-14T01:43:32.220Z,83.86
2022-12-14T01:43:42.482Z,83.86
2022-12-14T01:43:52.745Z,83.86
2022-12-14T01:44:03.013Z,83.86
2022-12-14T01:44:13.273Z,83.86
2022-12-14T01:44:23.529Z,83.86
2022-12-14T01:44:33.800Z,83.86
2022-12-14T01:44:44.057Z,83.86
2022-12-14T01:44:54.332Z,83.86
2022-12-14T01:45:04.573Z,83.86
2022-12-14T01:45:14.833Z,83.86
2022-12-14T01:45:25.091Z,83.86
2022-12-14T01:45:35.356Z,83.86
2022-12-14T01:45:45.615Z,83.86
2022-12-14T01:45:55.873Z,83.86
2022-12-14T01:46:06.218Z,83.86
2022-12-14T01:46:16.488Z,83.97
2022-12-14T01:46:26.762Z,83.97
2022-12-14T01:46:37.027Z,83.97
2022-12-14T01:46:47.349Z,83.97
2022-12-14T01:46:57.578Z,83.97
2022-12-14T01:47:12.472Z,83.86
2022-12-14T01:47:18.212Z,83.97
2022-12-14T01:47:28.461Z,83.97
2022-12-14T01:47:38.744Z,83.97
2022-12-14T01:47:48.996Z,83.97
2022-12-14T01:47:59.246Z,83.97
2022-12-14T01:48:09.507Z,84.07
2022-12-14T01:48:19.786Z,84.07
2022-12-14T01:48:30.039Z,84.07
2022-12-14T01:48:40.296Z,84.07
2022-12-14T01:48:50.554Z,84.07
2022-12-14T01:49:00.826Z,84.07
2022-12-14T01:49:11.101Z,84.07
2022-12-14T01:49:21.371Z,84.07
2022-12-14T01:49:31.629Z,84.07
2022-12-14T01:49:41.881Z,84.07
2022-12-14T01:49:52.145Z,83.97
2022-12-14T01:50:02.405Z,83.97
2022-12-14T01:50:12.665Z,83.97
2022-12-14T01:50:22.938Z,83.97
2022-12-14T01:50:33.206Z,83.97
2022-12-14T01:50:43.450Z,83.97
2022-12-14T01:50:53.709Z,83.97
2022-12-14T01:51:03.968Z,83.97
2022-12-14T01:51:14.228Z,83.97
2022-12-14T01:51:24.491Z,83.97
2022-12-14T01:51:34.753Z,83.97
2022-12-14T01:51:45.013Z,83.97
2022-12-14T01:51:55.269Z,83.97
2022-12-14T01:52:05.530Z,83.97
2022-12-14T01:52:15.810Z,83.97
2022-12-14T01:52:26.064Z,83.97
2022-12-14T01:52:36.328Z,83.97
2022-12-14T01:52:46.587Z,83.97
2022-12-14T01:52:56.847Z,83.97
2022-12-14T01:53:07.115Z,83.97
2022-12-14T01:53:17.369Z,83.97
2022-12-14T01:53:28.078Z,83.97
2022-12-14T01:53:37.889Z,83.97
2022-12-14T01:53:48.149Z,83.86
2022-12-14T01:53:58.413Z,83.97
2022-12-14T01:54:08.675Z,83.86
2022-12-14T01:54:18.950Z,83.86
2022-12-14T01:54:29.190Z,83.86
2022-12-14T01:54:39.453Z,83.86
2022-12-14T01:54:49.715Z,83.86
2022-12-14T01:54:59.972Z,83.97
2022-12-14T01:55:10.233Z,83.97
2022-12-14T01:55:20.493Z,83.97
2022-12-14T01:55:30.750Z,83.97
2022-12-14T01:55:41.011Z,83.97
2022-12-14T01:55:51.272Z,83.97
2022-12-14T01:56:01.535Z,83.97
2022-12-14T01:56:11.793Z,83.97
2022-12-14T01:56:22.059Z,83.97
2022-12-14T01:56:32.316Z,83.97
2022-12-14T01:56:42.577Z,83.97
2022-12-14T01:56:52.832Z,83.97
2022-12-14T01:57:03.095Z,83.97
2022-12-14T01:57:13.379Z,83.97
2022-12-14T01:57:23.640Z,83.97
2022-12-14T01:57:33.899Z,83.97
2022-12-14T01:57:44.163Z,83.86
2022-12-14T01:57:54.446Z,83.86
2022-12-14T01:58:04.714Z,83.86
2022-12-14T01:58:14.973Z,83.86
2022-12-14T01:58:25.229Z,83.86
2022-12-14T01:58:35.490Z,83.86
2022-12-14T01:58:45.756Z,83.86
2022-12-14T01:58:56.008Z,83.86
2022-12-14T01:59:06.779Z,83.75
2022-12-14T01:59:16.608Z,83.86
2022-12-14T01:59:26.863Z,83.86
2022-12-14T01:59:37.141Z,83.86
2022-12-14T01:59:47.387Z,83.86
2022-12-14T02:00:01.031Z,83.86
2022-12-14T02:00:09.091Z,83.86
2022-12-14T02:00:18.475Z,83.86
2022-12-14T02:00:28.735Z,83.86
2022-12-14T02:00:38.994Z,83.86
2022-12-14T02:00:49.264Z,83.86
2022-12-14T02:00:59.521Z,83.86
2022-12-14T02:01:09.831Z,83.75
2022-12-14T02:01:20.213Z,83.75
2022-12-14T02:01:30.481Z,83.75
2022-12-14T02:01:40.800Z,83.75
2022-12-14T02:01:51.163Z,83.75
2022-12-14T02:02:01.506Z,83.75
2022-12-14T02:02:11.791Z,83.75
2022-12-14T02:02:22.009Z,83.75
2022-12-14T02:02:32.427Z,83.75
2022-12-14T02:02:42.868Z,83.75
2022-12-14T02:02:53.265Z,83.75
2022-12-14T02:03:03.495Z,83.75
2022-12-14T02:03:13.788Z,83.75
2022-12-14T02:03:24.142Z,83.75
2022-12-14T02:03:34.448Z,83.86
2022-12-14T02:03:44.726Z,83.86
2022-12-14T02:03:54.940Z,83.86
2022-12-14T02:04:05.202Z,83.86
2022-12-14T02:04:15.473Z,83.86
2022-12-14T02:04:25.723Z,83.86
2022-12-14T02:04:35.989Z,83.86
2022-12-14T02:04:46.242Z,83.86
2022-12-14T02:04:56.502Z,83.86
2022-12-14T02:05:06.770Z,83.86
2022-12-14T02:05:17.031Z,83.86
2022-12-14T02:05:27.293Z,83.86
2022-12-14T02:05:37.554Z,83.86
2022-12-14T02:05:47.808Z,83.86
2022-12-14T02:05:58.066Z,83.86
2022-12-14T02:06:08.328Z,83.86
2022-12-14T02:06:18.587Z,83.86
2022-12-14T02:06:28.845Z,83.86
2022-12-14T02:06:39.107Z,83.86
2022-12-14T02:06:49.376Z,83.86
2022-12-14T02:07:01.386Z,83.86
2022-12-14T02:07:09.847Z,83.86
2022-12-14T02:07:20.121Z,83.86
2022-12-14T02:07:30.382Z,83.86
2022-12-14T02:07:40.641Z,83.86
2022-12-14T02:07:50.901Z,83.86
2022-12-14T02:08:01.161Z,83.86
2022-12-14T02:08:11.424Z,83.86
2022-12-14T02:08:21.681Z,83.86
2022-12-14T02:08:31.939Z,83.86
2022-12-14T02:08:42.200Z,83.86
2022-12-14T02:08:52.463Z,83.86
2022-12-14T02:09:02.724Z,83.86
2022-12-14T02:09:12.979Z,83.86
2022-12-14T02:09:23.261Z,83.86
2022-12-14T02:09:33.508Z,83.86
2022-12-14T02:09:43.760Z,83.86
2022-12-14T02:09:54.028Z,83.86
2022-12-14T02:10:04.286Z,83.86
2022-12-14T02:10:14.539Z,83.86
2022-12-14T02:10:24.804Z,83.86
2022-12-14T02:10:35.059Z,83.86
2022-12-14T02:10:45.318Z,83.86
2022-12-14T02:10:55.577Z,83.86
2022-12-14T02:11:05.849Z,83.86
2022-12-14T02:11:16.099Z,83.86
2022-12-14T02:11:26.356Z,83.86
2022-12-14T02:11:36.624Z,83.86
2022-12-14T02:11:46.880Z,83.86
2022-12-14T02:11:57.137Z,83.97
2022-12-14T02:12:07.404Z,83.86
2022-12-14T02:12:17.679Z,83.86